createdAt,value
2023-02-02T00:02:03.292Z,6.63
2023-02-02T00:04:37.563Z,6.64
2023-02-02T00:07:08.051Z,6.58
2023-02-02T00:09:37.993Z,6.59
2023-02-02T00:12:08.192Z,6.61
2023-02-02T00:14:38.316Z,6.65
2023-02-02T00:17:11.469Z,6.66
2023-02-02T00:19:42.792Z,6.67
2023-02-02T00:22:12.305Z,6.68
2023-02-02T00:24:42.253Z,6.70
2023-02-02T00:27:11.438Z,6.69
2023-02-02T00:29:41.472Z,6.72
2023-02-02T00:32:10.943Z,6.72
2023-02-02T00:34:41.329Z,6.72
2023-02-02T00:37:10.722Z,6.73
2023-02-02T00:39:40.676Z,6.75
2023-02-02T00:42:12.954Z,6.77
2023-02-02T00:44:59.533Z,6.75
2023-02-02T00:47:29.520Z,6.74
2023-02-02T00:50:00.901Z,6.73
2023-02-02T00:52:31.825Z,6.76
2023-02-02T00:55:02.037Z,6.76
2023-02-02T00:57:31.598Z,6.80
2023-02-02T01:00:00.060Z,6.80
2023-02-02T01:02:29.841Z,6.79
2023-02-02T01:05:00.318Z,6.79
2023-02-02T01:07:29.231Z,6.79
2023-02-02T01:09:59.020Z,6.81
2023-02-02T01:12:28.578Z,6.81
2023-02-02T01:14:58.565Z,6.82
2023-02-02T01:17:28.456Z,6.82
2023-02-02T01:20:00.191Z,6.84
2023-02-02T01:22:29.308Z,6.80
2023-02-02T01:24:59.254Z,6.81
2023-02-02T01:27:28.897Z,6.78
2023-02-02T01:29:57.842Z,6.77
2023-02-02T01:32:27.944Z,6.77
2023-02-02T01:34:57.422Z,6.77
2023-02-02T01:37:28.993Z,6.78
2023-02-02T01:39:59.018Z,6.79
2023-02-02T01:42:29.595Z,6.79
2023-02-02T01:45:26.697Z,6.77
2023-02-02T01:47:59.831Z,6.75
2023-02-02T01:50:34.672Z,6.75
2023-02-02T01:53:09.170Z,6.75
2023-02-02T01:55:42.784Z,6.75
2023-02-02T01:58:17.474Z,6.77
2023-02-02T02:00:47.321Z,6.75
2023-02-02T02:03:20.716Z,6.73
2023-02-02T02:05:57.408Z,6.74
2023-02-02T02:08:32.806Z,6.74
2023-02-02T02:11:03.312Z,6.75
2023-02-02T02:13:54.870Z,6.76
2023-02-02T02:16:52.192Z,6.78
2023-02-02T02:20:38.084Z,6.78
2023-02-02T02:24:18.656Z,6.77
2023-02-02T02:27:35.783Z,6.74
2023-02-02T02:30:38.257Z,6.71
2023-02-02T02:33:17.018Z,6.74
2023-02-02T02:35:56.987Z,6.77
2023-02-02T02:38:36.625Z,6.74
2023-02-02T02:41:13.698Z,6.76
2023-02-02T02:43:50.626Z,6.79
2023-02-02T02:46:20.714Z,6.77
2023-02-02T02:48:52.073Z,6.74
2023-02-02T02:51:50.470Z,6.76
2023-02-02T02:54:26.281Z,6.77
2023-02-02T02:57:29.684Z,6.79
2023-02-02T03:00:12.498Z,6.80
2023-02-02T03:02:58.424Z,6.81
2023-02-02T03:05:45.601Z,6.81
2023-02-02T03:08:26.329Z,6.80
2023-02-02T03:11:00.108Z,6.82
2023-02-02T03:13:33.131Z,6.80
2023-02-02T03:16:03.689Z,6.82
2023-02-02T03:18:35.679Z,6.83
2023-02-02T03:21:08.749Z,6.83
2023-02-02T03:23:39.171Z,6.82
2023-02-02T03:26:09.449Z,6.78
2023-02-02T03:28:39.299Z,6.76
2023-02-02T03:31:09.516Z,6.79
2023-02-02T03:33:40.260Z,6.81
2023-02-02T03:36:11.269Z,6.82
2023-02-02T03:38:41.337Z,6.86
2023-02-02T03:41:12.264Z,6.86
2023-02-02T03:43:42.534Z,6.88
2023-02-02T03:46:11.744Z,6.87
2023-02-02T03:48:42.084Z,6.87
2023-02-02T03:51:14.884Z,6.88
2023-02-02T03:53:47.509Z,6.88
2023-02-02T03:56:16.524Z,6.89
2023-02-02T03:58:48.556Z,6.88
2023-02-02T04:01:18.244Z,6.88
2023-02-02T04:03:48.589Z,6.89
2023-02-02T04:06:20.637Z,6.84
2023-02-02T04:08:49.796Z,6.84
2023-02-02T04:11:19.333Z,6.85
2023-02-02T04:13:48.293Z,6.87
2023-02-02T04:16:18.128Z,6.87
2023-02-02T04:18:48.016Z,6.86
2023-02-02T04:21:19.241Z,6.89
2023-02-02T04:23:49.814Z,6.87
2023-02-02T04:26:19.395Z,6.84
2023-02-02T04:28:49.256Z,6.86
2023-02-02T04:31:19.582Z,6.83
2023-02-02T04:33:49.331Z,6.83
2023-02-02T04:36:21.929Z,6.82
2023-02-02T04:38:52.331Z,6.82
2023-02-02T04:41:23.369Z,6.86
2023-02-02T04:43:52.557Z,6.86
2023-02-02T04:46:23.002Z,6.86
2023-02-02T04:48:53.502Z,6.88
2023-02-02T04:51:24.405Z,6.89
2023-02-02T04:53:55.228Z,6.89
2023-02-02T04:56:25.380Z,6.89
2023-02-02T04:58:56.549Z,6.90
2023-02-02T05:01:25.622Z,6.86
2023-02-02T05:03:56.597Z,6.86
2023-02-02T05:06:28.609Z,6.88
2023-02-02T05:09:00.565Z,6.88
2023-02-02T05:11:30.902Z,6.90
2023-02-02T05:14:00.542Z,6.90
2023-02-02T05:16:29.356Z,6.91
2023-02-02T05:19:00.203Z,6.90
2023-02-02T05:21:31.371Z,6.90
2023-02-02T05:24:01.709Z,6.92
2023-02-02T05:26:31.257Z,6.95
2023-02-02T05:29:00.373Z,6.90
2023-02-02T05:31:30.654Z,6.90
2023-02-02T05:34:01.402Z,6.90
2023-02-02T05:36:32.974Z,6.92
2023-02-02T05:39:03.099Z,6.87
2023-02-02T05:41:33.550Z,6.84
2023-02-02T05:44:04.093Z,6.86
2023-02-02T05:46:33.909Z,6.89
2023-02-02T05:49:05.236Z,6.89
2023-02-02T05:51:43.256Z,6.88
2023-02-02T05:54:17.309Z,6.89
2023-02-02T05:56:47.951Z,6.88
2023-02-02T05:59:18.538Z,6.88
2023-02-02T06:01:48.460Z,6.81
2023-02-02T06:04:18.645Z,6.87
2023-02-02T06:06:50.190Z,6.89
2023-02-02T06:09:20.721Z,6.90
2023-02-02T06:11:50.901Z,6.88
2023-02-02T06:14:20.476Z,6.88
2023-02-02T06:16:50.585Z,6.88
2023-02-02T06:19:21.640Z,6.91
2023-02-02T06:21:52.724Z,6.91
2023-02-02T06:24:22.678Z,6.89
2023-02-02T06:26:53.295Z,6.87
2023-02-02T06:29:23.839Z,6.89
2023-02-02T06:31:53.591Z,6.90
2023-02-02T06:34:24.510Z,6.95
2023-02-02T06:36:56.869Z,6.89
2023-02-02T06:39:27.777Z,6.87
2023-02-02T06:41:57.364Z,6.90
2023-02-02T06:44:27.663Z,6.89
2023-02-02T06:46:56.923Z,6.90
2023-02-02T06:49:26.979Z,6.90
2023-02-02T06:51:59.446Z,6.88
2023-02-02T06:54:29.704Z,6.85
2023-02-02T06:57:00.053Z,6.89
2023-02-02T06:59:29.264Z,6.88
2023-02-02T07:01:59.363Z,6.91
2023-02-02T07:04:28.635Z,6.96
2023-02-02T07:07:00.738Z,6.94
2023-02-02T07:09:33.779Z,6.93
2023-02-02T07:12:04.396Z,6.92
2023-02-02T07:14:35.992Z,6.95
2023-02-02T07:17:05.600Z,6.90
2023-02-02T07:19:34.833Z,6.93
2023-02-02T07:22:06.394Z,6.93
2023-02-02T07:24:38.812Z,6.98
2023-02-02T07:27:08.612Z,6.99
2023-02-02T07:29:38.317Z,7.02
2023-02-02T07:32:10.829Z,7.04
2023-02-02T07:34:43.029Z,7.04
2023-02-02T07:37:14.447Z,7.07
2023-02-02T07:39:45.103Z,7.06
2023-02-02T07:42:14.407Z,7.06
2023-02-02T07:44:44.347Z,7.04
2023-02-02T07:47:14.178Z,7.01
2023-02-02T07:49:45.932Z,6.97
2023-02-02T07:52:16.747Z,7.01
2023-02-02T07:54:46.259Z,7.01
2023-02-02T07:57:18.709Z,6.99
2023-02-02T07:59:51.129Z,6.98
2023-02-02T08:02:22.106Z,6.99
2023-02-02T08:04:52.829Z,7.03
2023-02-02T08:07:25.475Z,7.01
2023-02-02T08:09:56.177Z,7.04
2023-02-02T08:12:26.661Z,7.05
2023-02-02T08:14:59.287Z,7.05
2023-02-02T08:17:29.557Z,7.05
2023-02-02T08:20:00.589Z,7.05
2023-02-02T08:22:33.257Z,7.06
2023-02-02T08:25:04.072Z,7.08
2023-02-02T08:27:37.584Z,7.10
2023-02-02T08:30:10.667Z,7.09
2023-02-02T08:32:41.129Z,7.09
2023-02-02T08:35:11.685Z,7.13
2023-02-02T08:37:43.179Z,7.13
2023-02-02T08:40:15.696Z,7.13
2023-02-02T08:42:46.453Z,7.16
2023-02-02T08:46:03.248Z,7.18
2023-02-02T08:48:11.995Z,7.20
2023-02-02T08:50:43.630Z,7.18
2023-02-02T08:53:16.264Z,7.19
2023-02-02T08:55:47.785Z,7.16
2023-02-02T08:58:17.395Z,7.19
2023-02-02T09:00:48.408Z,7.21
2023-02-02T09:03:18.744Z,7.22
2023-02-02T09:05:49.489Z,7.22
2023-02-02T09:08:22.852Z,7.22
2023-02-02T09:10:52.848Z,7.22
2023-02-02T09:13:24.754Z,7.22
2023-02-02T09:15:54.247Z,7.22
2023-02-02T09:18:24.888Z,7.20
2023-02-02T09:20:55.496Z,7.20
2023-02-02T09:23:27.051Z,7.21
2023-02-02T09:25:57.933Z,7.25
2023-02-02T09:28:29.416Z,7.25
2023-02-02T09:31:03.889Z,7.24
2023-02-02T09:33:33.716Z,7.25
2023-02-02T09:36:09.098Z,7.26
2023-02-02T09:38:41.368Z,7.25
2023-02-02T09:42:29.883Z,7.21
2023-02-02T09:45:18.778Z,7.21
2023-02-02T09:48:10.261Z,7.27
2023-02-02T09:50:52.974Z,7.26
2023-02-02T09:54:02.714Z,7.27
2023-02-02T09:56:41.763Z,7.28
2023-02-02T09:59:24.417Z,7.27
2023-02-02T10:01:58.968Z,7.28
2023-02-02T10:04:36.469Z,7.34
2023-02-02T10:07:14.139Z,7.37
2023-02-02T10:09:52.256Z,7.34
2023-02-02T10:12:34.390Z,7.32
2023-02-02T10:15:18.903Z,7.32
2023-02-02T10:17:57.533Z,7.35
2023-02-02T10:20:44.502Z,7.39
2023-02-02T10:23:29.799Z,7.42
2023-02-02T10:26:07.555Z,7.42
2023-02-02T10:29:04.592Z,7.41
2023-02-02T10:31:46.720Z,7.43
2023-02-02T10:34:25.107Z,7.45
2023-02-02T10:37:35.181Z,7.45
2023-02-02T10:40:24.557Z,7.48
2023-02-02T10:43:47.612Z,7.50
2023-02-02T10:46:24.093Z,7.52
2023-02-02T10:49:02.022Z,7.53
2023-02-02T10:51:33.431Z,7.57
2023-02-02T10:54:22.010Z,7.57
2023-02-02T10:56:58.829Z,7.58
2023-02-02T10:59:33.946Z,7.58
2023-02-02T11:02:18.969Z,7.59
2023-02-02T11:05:08.156Z,7.63
2023-02-02T11:07:40.620Z,7.59
2023-02-02T11:10:11.060Z,7.64
2023-02-02T11:12:51.144Z,7.65
2023-02-02T11:15:32.210Z,7.64
2023-02-02T11:18:28.202Z,7.65
2023-02-02T11:20:59.209Z,7.68
2023-02-02T11:23:32.671Z,7.66
2023-02-02T11:26:05.914Z,7.68
2023-02-02T11:28:38.982Z,7.72
2023-02-02T11:31:10.733Z,7.70
2023-02-02T11:33:40.586Z,7.67
2023-02-02T11:36:25.016Z,7.69
2023-02-02T11:39:22.376Z,7.67
2023-02-02T11:41:51.336Z,7.70
2023-02-02T11:44:28.907Z,7.72
2023-02-02T11:47:01.222Z,7.73
2023-02-02T11:49:40.293Z,7.72
2023-02-02T11:52:20.785Z,7.75
2023-02-02T11:54:53.678Z,7.79
2023-02-02T11:57:26.441Z,7.79
2023-02-02T12:00:19.223Z,7.79
2023-02-02T12:02:50.865Z,7.82
2023-02-02T12:05:38.521Z,7.84
2023-02-02T12:08:12.967Z,7.84
2023-02-02T12:10:54.028Z,7.83
2023-02-02T12:13:49.565Z,7.86
2023-02-02T12:17:07.828Z,7.91
2023-02-02T12:19:59.159Z,7.91
2023-02-02T12:23:04.469Z,7.89
2023-02-02T12:25:56.189Z,7.91
2023-02-02T12:28:43.908Z,7.85
2023-02-02T12:31:32.152Z,7.85
2023-02-02T12:34:14.546Z,7.83
2023-02-02T12:37:05.220Z,7.89
2023-02-02T12:39:47.828Z,7.90
2023-02-02T12:42:48.286Z,7.90
2023-02-02T12:46:15.298Z,7.87
2023-02-02T12:49:12.836Z,7.90
2023-02-02T12:52:09.965Z,7.88
2023-02-02T12:55:03.222Z,7.87
2023-02-02T12:57:52.183Z,7.85
2023-02-02T13:00:58.087Z,7.90
2023-02-02T13:03:46.811Z,7.91
2023-02-02T13:06:46.515Z,7.91
2023-02-02T13:09:30.073Z,7.96
2023-02-02T13:12:09.991Z,7.93
2023-02-02T13:14:47.353Z,7.94
2023-02-02T13:17:24.280Z,7.95
2023-02-02T13:19:59.746Z,7.99
2023-02-02T13:22:35.730Z,8.00
2023-02-02T13:25:18.360Z,7.95
2023-02-02T13:27:50.100Z,7.96
2023-02-02T13:30:33.478Z,7.95
2023-02-02T13:33:13.235Z,7.97
2023-02-02T13:35:52.897Z,7.97
2023-02-02T13:38:26.498Z,7.97
2023-02-02T13:41:02.113Z,8.02
2023-02-02T13:43:48.086Z,8.05
2023-02-02T13:46:32.944Z,8.10
2023-02-02T13:49:13.521Z,8.08
2023-02-02T13:51:55.149Z,8.09
2023-02-02T13:55:28.356Z,8.10
2023-02-02T13:58:41.833Z,8.08
2023-02-02T14:01:16.841Z,8.04
2023-02-02T14:03:55.293Z,8.14
2023-02-02T14:06:26.727Z,8.19
2023-02-02T14:09:00.411Z,8.16
2023-02-02T14:11:34.003Z,8.17
2023-02-02T14:14:36.329Z,8.18
2023-02-02T14:17:10.031Z,8.25
2023-02-02T14:19:57.080Z,8.27
2023-02-02T14:22:54.622Z,8.31
2023-02-02T14:25:54.147Z,8.34
2023-02-02T14:29:32.115Z,8.31
2023-02-02T14:32:26.046Z,8.22
2023-02-02T14:34:57.053Z,8.21
2023-02-02T14:37:55.423Z,8.27
2023-02-02T14:40:47.089Z,8.28
2023-02-02T14:43:47.342Z,8.29
2023-02-02T14:46:34.768Z,8.27
2023-02-02T14:49:24.043Z,8.21
2023-02-02T14:52:02.195Z,8.22
2023-02-02T14:54:38.920Z,8.21
2023-02-02T14:57:27.889Z,8.20
2023-02-02T15:00:01.345Z,8.29
2023-02-02T15:02:37.206Z,8.21
2023-02-02T15:05:46.168Z,8.26
2023-02-02T15:08:26.880Z,8.22
2023-02-02T15:11:27.215Z,8.20
2023-02-02T15:14:15.524Z,8.20
2023-02-02T15:16:47.569Z,8.21
2023-02-02T15:19:32.951Z,8.19
2023-02-02T15:22:29.798Z,8.24
2023-02-02T15:25:04.782Z,8.27
2023-02-02T15:27:38.621Z,8.27
2023-02-02T15:30:18.005Z,8.28
2023-02-02T15:32:50.186Z,8.24
2023-02-02T15:35:25.179Z,8.16
2023-02-02T15:38:06.526Z,8.20
2023-02-02T15:40:39.436Z,8.21
2023-02-02T15:43:11.571Z,8.19
2023-02-02T15:45:50.293Z,8.19
2023-02-02T15:48:26.965Z,8.15
2023-02-02T15:50:56.957Z,8.11
2023-02-02T15:53:31.407Z,8.07
2023-02-02T15:56:00.592Z,8.10
2023-02-02T15:58:33.743Z,8.15
2023-02-02T16:01:06.606Z,8.19
2023-02-02T16:03:46.980Z,8.19
2023-02-02T16:06:16.000Z,8.13
2023-02-02T16:08:47.586Z,8.18
2023-02-02T16:11:19.008Z,8.21
2023-02-02T16:14:02.448Z,8.24
2023-02-02T16:16:36.117Z,8.17
2023-02-02T16:19:15.459Z,8.16
2023-02-02T16:21:52.550Z,8.13
2023-02-02T16:24:30.256Z,8.14
2023-02-02T16:27:06.595Z,8.11
2023-02-02T16:29:36.662Z,8.09
2023-02-02T16:32:06.985Z,8.06
2023-02-02T16:34:47.655Z,8.08
2023-02-02T16:37:23.105Z,8.10
2023-02-02T16:39:54.217Z,8.07
2023-02-02T16:42:30.219Z,8.05
2023-02-02T16:45:00.585Z,8.03
2023-02-02T16:47:40.605Z,7.97
2023-02-02T16:50:33.705Z,7.95
2023-02-02T16:53:07.079Z,7.98
2023-02-02T16:55:50.040Z,7.96
2023-02-02T16:58:24.655Z,7.98
2023-02-02T17:01:15.061Z,7.95
2023-02-02T17:03:52.665Z,7.93
2023-02-02T17:06:45.802Z,7.89
2023-02-02T17:09:36.150Z,7.89
2023-02-02T17:12:35.256Z,7.90
2023-02-02T17:15:35.615Z,7.84
2023-02-02T17:18:06.220Z,7.84
2023-02-02T17:20:36.095Z,7.80
2023-02-02T17:23:10.381Z,7.73
2023-02-02T17:25:44.711Z,7.72
2023-02-02T17:28:21.577Z,7.73
2023-02-02T17:31:00.141Z,7.74
2023-02-02T17:33:29.289Z,7.73
2023-02-02T17:35:57.694Z,7.72
2023-02-02T17:38:27.816Z,7.73
2023-02-02T17:41:01.714Z,7.70
2023-02-02T17:43:34.549Z,7.67
2023-02-02T17:46:04.860Z,7.67
2023-02-02T17:48:36.204Z,7.67
2023-02-02T17:51:07.212Z,7.62
2023-02-02T17:53:36.979Z,7.63
2023-02-02T17:56:06.938Z,7.62
2023-02-02T17:58:37.336Z,7.62
2023-02-02T18:01:08.545Z,7.63
2023-02-02T18:03:42.330Z,7.60
2023-02-02T18:06:13.641Z,7.62
2023-02-02T18:08:42.732Z,7.62
2023-02-02T18:11:14.951Z,7.60
2023-02-02T18:13:45.956Z,7.61
2023-02-02T18:16:16.582Z,7.64
2023-02-02T18:18:46.771Z,7.63
2023-02-02T18:21:15.825Z,7.62
2023-02-02T18:23:48.584Z,7.60
2023-02-02T18:26:22.190Z,7.59
2023-02-02T18:28:54.664Z,7.61
2023-02-02T18:31:24.752Z,7.61
2023-02-02T18:33:55.023Z,7.63
2023-02-02T18:36:24.254Z,7.62
2023-02-02T18:38:54.687Z,7.65
2023-02-02T18:41:23.876Z,7.64
2023-02-02T18:43:55.898Z,7.65
2023-02-02T18:46:25.261Z,7.61
2023-02-02T18:48:56.905Z,7.61
2023-02-02T18:51:26.597Z,7.61
2023-02-02T18:54:01.009Z,7.59
2023-02-02T18:56:32.234Z,7.59
2023-02-02T18:59:02.031Z,7.55
2023-02-02T19:01:31.408Z,7.57
2023-02-02T19:04:00.600Z,7.59
2023-02-02T19:06:48.086Z,7.55
2023-02-02T19:09:17.565Z,7.53
2023-02-02T19:11:50.567Z,7.54
2023-02-02T19:14:24.778Z,7.54
2023-02-02T19:16:58.194Z,7.53
2023-02-02T19:19:32.928Z,7.53
2023-02-02T19:22:09.332Z,7.54
2023-02-02T19:24:41.679Z,7.52
2023-02-02T19:27:19.652Z,7.55
2023-02-02T19:29:52.869Z,7.53
2023-02-02T19:32:26.962Z,7.56
2023-02-02T19:35:01.744Z,7.51
2023-02-02T19:37:34.382Z,7.51
2023-02-02T19:40:20.585Z,7.51
2023-02-02T19:42:57.228Z,7.52
2023-02-02T19:45:33.501Z,7.53
2023-02-02T19:48:14.270Z,7.53
2023-02-02T19:50:45.299Z,7.50
2023-02-02T19:53:21.821Z,7.50
2023-02-02T19:55:51.097Z,7.52
2023-02-02T19:58:23.319Z,7.50
2023-02-02T20:00:57.352Z,7.52
2023-02-02T20:03:30.151Z,7.51
2023-02-02T20:06:00.700Z,7.48
2023-02-02T20:08:38.184Z,7.43
2023-02-02T20:11:32.153Z,7.45
2023-02-02T20:14:03.739Z,7.45
2023-02-02T20:16:42.819Z,7.46
2023-02-02T20:19:23.563Z,7.47
2023-02-02T20:21:54.564Z,7.46
2023-02-02T20:24:29.070Z,7.46
2023-02-02T20:27:09.636Z,7.46
2023-02-02T20:29:45.818Z,7.48
2023-02-02T20:32:26.936Z,7.47
2023-02-02T20:34:58.721Z,7.46
2023-02-02T20:37:30.661Z,7.49
2023-02-02T20:40:03.212Z,7.47
2023-02-02T20:42:32.881Z,7.48
2023-02-02T20:45:02.581Z,7.46
2023-02-02T20:47:34.238Z,7.47
2023-02-02T20:50:04.738Z,7.49
2023-02-02T20:52:34.251Z,7.49
2023-02-02T20:55:04.229Z,7.49
2023-02-02T20:57:33.817Z,7.50
2023-02-02T21:00:03.876Z,7.51
2023-02-02T21:02:34.691Z,7.49
2023-02-02T21:05:03.270Z,7.53
2023-02-02T21:07:33.409Z,7.51
2023-02-02T21:10:03.620Z,7.51
2023-02-02T21:12:32.236Z,7.52
2023-02-02T21:15:02.348Z,7.49
2023-02-02T21:17:31.501Z,7.50
2023-02-02T21:20:03.765Z,7.46
2023-02-02T21:22:32.692Z,7.48
2023-02-02T21:25:02.041Z,7.52
2023-02-02T21:27:31.455Z,7.49
2023-02-02T21:30:01.148Z,7.51
2023-02-02T21:32:31.521Z,7.51
2023-02-02T21:35:01.877Z,7.51
2023-02-02T21:37:31.288Z,7.52
2023-02-02T21:40:03.345Z,7.53
2023-02-02T21:42:37.454Z,7.52
2023-02-02T21:45:34.120Z,7.52
2023-02-02T21:48:06.759Z,7.53
2023-02-02T21:50:43.438Z,7.53
2023-02-02T21:53:21.307Z,7.53
2023-02-02T21:55:54.431Z,7.51
2023-02-02T21:58:27.234Z,7.52
2023-02-02T22:01:01.732Z,7.51
2023-02-02T22:03:38.277Z,7.52
2023-02-02T22:06:36.614Z,7.55
2023-02-02T22:09:19.880Z,7.57
2023-02-02T22:11:55.020Z,7.54
2023-02-02T22:14:36.324Z,7.55
2023-02-02T22:17:22.283Z,7.53
2023-02-02T22:19:59.011Z,7.55
2023-02-02T22:22:37.317Z,7.57
2023-02-02T22:25:29.670Z,7.55
2023-02-02T22:28:03.209Z,7.56
2023-02-02T22:30:38.125Z,7.56
2023-02-02T22:33:09.874Z,7.55
2023-02-02T22:35:39.804Z,7.53
2023-02-02T22:38:11.254Z,7.53
2023-02-02T22:40:41.047Z,7.53
2023-02-02T22:43:10.584Z,7.52
2023-02-02T22:45:41.082Z,7.54
2023-02-02T22:48:11.657Z,7.53
2023-02-02T22:50:41.353Z,7.53
2023-02-02T22:53:12.451Z,7.54
2023-02-02T22:55:41.424Z,7.54
2023-02-02T22:58:10.868Z,7.55
2023-02-02T23:00:41.448Z,7.54
2023-02-02T23:03:11.172Z,7.53
2023-02-02T23:05:40.281Z,7.56
2023-02-02T23:08:11.269Z,7.56
2023-02-02T23:10:40.458Z,7.54
2023-02-02T23:13:10.139Z,7.55
2023-02-02T23:15:39.495Z,7.54
2023-02-02T23:18:09.742Z,7.55
2023-02-02T23:20:39.099Z,7.57
2023-02-02T23:23:09.063Z,7.62
2023-02-02T23:25:39.792Z,7.62
2023-02-02T23:28:11.098Z,7.61
2023-02-02T23:30:41.150Z,7.63
2023-02-02T23:33:10.942Z,7.64
2023-02-02T23:35:40.843Z,7.64
2023-02-02T23:38:10.353Z,7.60
2023-02-02T23:40:41.841Z,7.62
2023-02-02T23:43:12.148Z,7.63
2023-02-02T23:45:41.112Z,7.62
2023-02-02T23:48:11.182Z,7.64
2023-02-02T23:50:41.513Z,7.63
2023-02-02T23:53:11.983Z,7.64
2023-02-02T23:55:46.220Z,7.64
2023-02-02T23:58:15.720Z,7.65
